EJU223 LPPR-EHAM
Flight info
| Callsign | EJU223 |
|---|---|
| Flight time | N/A |
| Altitude | 36000 |
| Route | TURON P600 ASDEB/N0454F340 DCT LOTEE/N0456F360 DCT AZFIC DCT ERIGA DCT GODIX DCT PODEM UN873 BAZOS DCT LUMIL DCT BELOB UY873 DENUT |
| Aircraft | A320/M-SDE3FGHIRWY/LB1 |
Departure
| Time | 2026-05-05 15:54 |
|---|---|
| Airport | Francisco de Sá Carneiro Airport (LPPR) |
Arrival
| Time | N/A |
|---|---|
| Airport | Amsterdam Airport Schiphol (EHAM) |
| Time | Latitude | Longitude | Altitude | Speed | Heading |
|---|---|---|---|---|---|
| 2026-05-05 15:27 | 41.23974 | -8.67294 | 240 ft | 0 kts | 108° |
| 2026-05-05 15:40 | 41.23974 | -8.67297 | 240 ft | 1 kts | 109° |
| 2026-05-05 15:41 | 41.23980 | -8.67318 | 239 ft | 3 kts | 112° |
| 2026-05-05 15:41 | 41.23989 | -8.67344 | 240 ft | 3 kts | 116° |
| 2026-05-05 15:41 | 41.23998 | -8.67367 | 239 ft | 3 kts | 122° |
| 2026-05-05 15:41 | 41.24009 | -8.67389 | 238 ft | 3 kts | 129° |
| 2026-05-05 15:42 | 41.24023 | -8.67409 | 237 ft | 3 kts | 143° |
| 2026-05-05 15:42 | 41.24038 | -8.67420 | 240 ft | 2 kts | 165° |
| 2026-05-05 15:42 | 41.24041 | -8.67421 | 240 ft | 0 kts | 167° |
| 2026-05-05 15:47 | 41.24040 | -8.67421 | 240 ft | 1 kts | 167° |
| 2026-05-05 15:48 | 41.24013 | -8.67415 | 238 ft | 6 kts | 175° |
| 2026-05-05 15:48 | 41.23978 | -8.67427 | 235 ft | 4 kts | 211° |
| 2026-05-05 15:48 | 41.23941 | -8.67461 | 235 ft | 9 kts | 214° |
| 2026-05-05 15:48 | 41.23888 | -8.67489 | 235 ft | 7 kts | 186° |
| 2026-05-05 15:49 | 41.23844 | -8.67479 | 235 ft | 6 kts | 166° |
| 2026-05-05 15:49 | 41.23795 | -8.67466 | 235 ft | 13 kts | 169° |
| 2026-05-05 15:49 | 41.23707 | -8.67443 | 235 ft | 12 kts | 168° |
| 2026-05-05 15:49 | 41.23641 | -8.67458 | 238 ft | 9 kts | 222° |
| 2026-05-05 15:50 | 41.23622 | -8.67526 | 235 ft | 7 kts | 259° |
| 2026-05-05 15:50 | 41.23612 | -8.67599 | 235 ft | 10 kts | 259° |
| 2026-05-05 15:50 | 41.23603 | -8.67660 | 237 ft | 0 kts | 259° |
| 2026-05-05 15:52 | 41.23603 | -8.67664 | 236 ft | 4 kts | 259° |
| 2026-05-05 15:52 | 41.23594 | -8.67725 | 235 ft | 7 kts | 256° |
| 2026-05-05 15:53 | 41.23573 | -8.67770 | 235 ft | 5 kts | 232° |
| 2026-05-05 15:53 | 41.23576 | -8.67799 | 235 ft | 5 kts | 313° |
| 2026-05-05 15:53 | 41.23596 | -8.67808 | 235 ft | 0 kts | 346° |
| 2026-05-05 15:53 | 41.23758 | -8.67851 | 233 ft | 61 kts | 349° |
| 2026-05-05 15:54 | 41.24393 | -8.68018 | 237 ft | 122 kts | 349° |
| 2026-05-05 15:54 | 41.25401 | -8.68280 | 238 ft | 170 kts | 349° |
| 2026-05-05 15:54 | 41.26581 | -8.68587 | 752 ft | 173 kts | 348° |
| 2026-05-05 15:54 | 41.27772 | -8.68917 | 1407 ft | 176 kts | 347° |
| 2026-05-05 15:55 | 41.28987 | -8.69265 | 1934 ft | 186 kts | 348° |